sensor_id;sensor_type;location;lat;lon;timestamp;pressure;altitude;pressure_sealevel;temperature;humidity
41222;BME280;26952;42.884;23.918;2022-07-23T00:01:30;96041.25;;;19.72;71.55
41222;BME280;26952;42.884;23.918;2022-07-23T00:03:55;96053.47;;;19.68;72.57
41222;BME280;26952;42.884;23.918;2022-07-23T00:06:22;96045.13;;;19.58;71.20
41222;BME280;26952;42.884;23.918;2022-07-23T00:08:48;96035.19;;;19.59;70.78
41222;BME280;26952;42.884;23.918;2022-07-23T00:11:13;96029.09;;;19.52;72.38
41222;BME280;26952;42.884;23.918;2022-07-23T00:13:38;96038.09;;;19.57;71.33
41222;BME280;26952;42.884;23.918;2022-07-23T00:16:04;96046.38;;;19.56;70.19
41222;BME280;26952;42.884;23.918;2022-07-23T00:18:30;96034.47;;;19.52;70.37
41222;BME280;26952;42.884;23.918;2022-07-23T00:20:56;96046.44;;;19.49;70.81
41222;BME280;26952;42.884;23.918;2022-07-23T00:23:21;96047.97;;;19.45;71.49
41222;BME280;26952;42.884;23.918;2022-07-23T00:25:46;96030.13;;;19.26;72.28
41222;BME280;26952;42.884;23.918;2022-07-23T00:28:12;96051.91;;;19.43;71.93
41222;BME280;26952;42.884;23.918;2022-07-23T00:30:37;96040.03;;;19.32;72.18
41222;BME280;26952;42.884;23.918;2022-07-23T00:33:07;96037.66;;;19.17;73.47
41222;BME280;26952;42.884;23.918;2022-07-23T00:35:38;96051.03;;;19.24;73.12
41222;BME280;26952;42.884;23.918;2022-07-23T00:38:06;96040.19;;;19.12;72.14
41222;BME280;26952;42.884;23.918;2022-07-23T00:40:32;96043.09;;;19.11;71.98
41222;BME280;26952;42.884;23.918;2022-07-23T00:42:58;96027.69;;;18.82;73.93
41222;BME280;26952;42.884;23.918;2022-07-23T00:45:24;96033.44;;;18.79;74.45
41222;BME280;26952;42.884;23.918;2022-07-23T00:47:50;96023.44;;;18.68;75.39
41222;BME280;26952;42.884;23.918;2022-07-23T00:50:15;96025.69;;;18.71;75.78
41222;BME280;26952;42.884;23.918;2022-07-23T00:52:41;96007.78;;;18.65;75.04
41222;BME280;26952;42.884;23.918;2022-07-23T00:55:08;96024.31;;;18.62;75.69
41222;BME280;26952;42.884;23.918;2022-07-23T00:57:35;96023.03;;;18.64;76.03
41222;BME280;26952;42.884;23.918;2022-07-23T01:00:01;96029.03;;;18.66;76.68
41222;BME280;26952;42.884;23.918;2022-07-23T01:02:27;96039.31;;;18.69;76.21
41222;BME280;26952;42.884;23.918;2022-07-23T01:04:53;95992.25;;;18.49;74.83
41222;BME280;26952;42.884;23.918;2022-07-23T01:07:19;96023.25;;;18.63;75.42
41222;BME280;26952;42.884;23.918;2022-07-23T01:09:45;96020.84;;;18.55;74.30
41222;BME280;26952;42.884;23.918;2022-07-23T01:12:11;95970.34;;;18.21;73.55
41222;BME280;26952;42.884;23.918;2022-07-23T01:14:37;96010.56;;;18.52;71.62
41222;BME280;26952;42.884;23.918;2022-07-23T01:17:03;96013.75;;;18.67;72.53
41222;BME280;26952;42.884;23.918;2022-07-23T01:19:28;96005.97;;;18.59;73.00
41222;BME280;26952;42.884;23.918;2022-07-23T01:21:54;96013.75;;;18.67;74.12
41222;BME280;26952;42.884;23.918;2022-07-23T01:24:22;96017.31;;;18.61;74.35
41222;BME280;26952;42.884;23.918;2022-07-23T01:26:48;96001.16;;;18.43;74.24
41222;BME280;26952;42.884;23.918;2022-07-23T01:29:15;96021.28;;;18.52;73.55
41222;BME280;26952;42.884;23.918;2022-07-23T01:31:41;96025.47;;;18.48;74.59
41222;BME280;26952;42.884;23.918;2022-07-23T01:34:07;96003.47;;;18.33;75.64
41222;BME280;26952;42.884;23.918;2022-07-23T01:36:33;96007.00;;;18.27;73.92
41222;BME280;26952;42.884;23.918;2022-07-23T01:38:59;96006.66;;;18.17;74.48
41222;BME280;26952;42.884;23.918;2022-07-23T01:41:24;96027.22;;;18.23;75.15
41222;BME280;26952;42.884;23.918;2022-07-23T01:43:50;96023.94;;;18.21;75.18
41222;BME280;26952;42.884;23.918;2022-07-23T01:46:15;96012.50;;;18.07;75.52
41222;BME280;26952;42.884;23.918;2022-07-23T01:48:41;96031.78;;;18.16;75.85
41222;BME280;26952;42.884;23.918;2022-07-23T01:51:07;96031.47;;;18.06;74.56
41222;BME280;26952;42.884;23.918;2022-07-23T01:53:32;96004.34;;;17.89;75.42
41222;BME280;26952;42.884;23.918;2022-07-23T01:55:58;96024.84;;;18.08;75.95
41222;BME280;26952;42.884;23.918;2022-07-23T01:58:25;95994.03;;;17.92;75.76
41222;BME280;26952;42.884;23.918;2022-07-23T02:00:50;96014.59;;;17.98;75.81
41222;BME280;26952;42.884;23.918;2022-07-23T02:03:15;96009.22;;;17.98;75.44
41222;BME280;26952;42.884;23.918;2022-07-23T02:05:41;95985.81;;;17.87;75.62
41222;BME280;26952;42.884;23.918;2022-07-23T02:08:06;96012.56;;;17.94;73.71
41222;BME280;26952;42.884;23.918;2022-07-23T02:10:32;96018.91;;;17.99;73.53
41222;BME280;26952;42.884;23.918;2022-07-23T02:12:57;96020.16;;;17.97;73.22
41222;BME280;26952;42.884;23.918;2022-07-23T02:15:23;96019.19;;;17.85;74.28
41222;BME280;26952;42.884;23.918;2022-07-23T02:17:48;96001.16;;;17.61;74.84
41222;BME280;26952;42.884;23.918;2022-07-23T02:20:14;96025.84;;;17.69;74.57
41222;BME280;26952;42.884;23.918;2022-07-23T02:22:39;96022.78;;;17.59;75.45
41222;BME280;26952;42.884;23.918;2022-07-23T02:25:06;96009.84;;;17.56;75.08
41222;BME280;26952;42.884;23.918;2022-07-23T02:27:34;96005.94;;;17.52;74.78
41222;BME280;26952;42.884;23.918;2022-07-23T02:30:00;96015.16;;;17.63;72.76
41222;BME280;26952;42.884;23.918;2022-07-23T02:32:27;96006.09;;;17.64;71.78
41222;BME280;26952;42.884;23.918;2022-07-23T02:34:52;96006.50;;;17.67;72.09
41222;BME280;26952;42.884;23.918;2022-07-23T02:37:18;95993.56;;;17.58;72.43
41222;BME280;26952;42.884;23.918;2022-07-23T02:39:43;96022.16;;;17.64;72.05
41222;BME280;26952;42.884;23.918;2022-07-23T02:42:09;96021.56;;;17.62;73.54
41222;BME280;26952;42.884;23.918;2022-07-23T02:44:34;96024.63;;;17.65;69.79
41222;BME280;26952;42.884;23.918;2022-07-23T02:47:00;96014.34;;;17.62;73.42
41222;BME280;26952;42.884;23.918;2022-07-23T02:49:25;96012.50;;;17.56;72.55
41222;BME280;26952;42.884;23.918;2022-07-23T02:51:51;96029.56;;;17.68;72.19
41222;BME280;26952;42.884;23.918;2022-07-23T02:54:17;96004.69;;;17.55;70.99
41222;BME280;26952;42.884;23.918;2022-07-23T02:56:42;95995.41;;;17.44;72.18
41222;BME280;26952;42.884;23.918;2022-07-23T02:59:07;96026.72;;;17.63;72.38
41222;BME280;26952;42.884;23.918;2022-07-23T03:01:34;96023.03;;;17.51;73.12
41222;BME280;26952;42.884;23.918;2022-07-23T03:03:59;96021.38;;;17.44;72.93
41222;BME280;26952;42.884;23.918;2022-07-23T03:06:24;96017.69;;;17.38;74.16
41222;BME280;26952;42.884;23.918;2022-07-23T03:12:12;96033.31;;;17.41;73.43
41222;BME280;26952;42.884;23.918;2022-07-23T03:14:38;96035.41;;;17.39;74.48
41222;BME280;26952;42.884;23.918;2022-07-23T03:17:03;96039.13;;;17.45;71.88
41222;BME280;26952;42.884;23.918;2022-07-23T03:19:28;96040.72;;;17.52;72.43
41222;BME280;26952;42.884;23.918;2022-07-23T03:21:54;96052.88;;;17.61;73.82
41222;BME280;26952;42.884;23.918;2022-07-23T03:24:19;96046.69;;;17.61;72.24
41222;BME280;26952;42.884;23.918;2022-07-23T03:26:45;96025.72;;;17.51;73.60
41222;BME280;26952;42.884;23.918;2022-07-23T03:29:10;96046.44;;;17.69;72.87
41222;BME280;26952;42.884;23.918;2022-07-23T03:31:36;96045.63;;;17.75;73.28
41222;BME280;26952;42.884;23.918;2022-07-23T03:34:01;96036.91;;;17.86;72.93
41222;BME280;26952;42.884;23.918;2022-07-23T03:36:27;96041.38;;;17.98;72.89
41222;BME280;26952;42.884;23.918;2022-07-23T03:38:52;96033.94;;;18.07;72.23
41222;BME280;26952;42.884;23.918;2022-07-23T03:41:19;96050.22;;;18.37;72.00
41222;BME280;26952;42.884;23.918;2022-07-23T03:43:45;96051.78;;;19.06;69.84
41222;BME280;26952;42.884;23.918;2022-07-23T03:46:12;96056.06;;;19.93;65.26
41222;BME280;26952;42.884;23.918;2022-07-23T03:48:37;96054.25;;;20.94;62.22
41222;BME280;26952;42.884;23.918;2022-07-23T03:51:03;96042.25;;;21.77;59.20
41222;BME280;26952;42.884;23.918;2022-07-23T03:53:29;96050.22;;;22.63;55.84
41222;BME280;26952;42.884;23.918;2022-07-23T03:55:55;96047.97;;;23.38;53.94
41222;BME280;26952;42.884;23.918;2022-07-23T03:58:20;96043.56;;;24.08;50.64
41222;BME280;26952;42.884;23.918;2022-07-23T04:00:46;96022.03;;;24.66;48.50
41222;BME280;26952;42.884;23.918;2022-07-23T04:03:11;96016.81;;;25.18;47.84
41222;BME280;26952;42.884;23.918;2022-07-23T04:05:37;96033.91;;;25.97;45.99
41222;BME280;26952;42.884;23.918;2022-07-23T04:08:02;96042.59;;;26.65;44.98
41222;BME280;26952;42.884;23.918;2022-07-23T04:10:28;96039.72;;;27.32;43.46
41222;BME280;26952;42.884;23.918;2022-07-23T04:12:53;96040.75;;;27.71;42.34
41222;BME280;26952;42.884;23.918;2022-07-23T04:15:19;96040.69;;;28.01;41.97
41222;BME280;26952;42.884;23.918;2022-07-23T04:17:44;96050.06;;;28.98;39.89
41222;BME280;26952;42.884;23.918;2022-07-23T04:20:12;96044.09;;;29.34;38.70
41222;BME280;26952;42.884;23.918;2022-07-23T04:22:38;96046.72;;;29.44;39.15
41222;BME280;26952;42.884;23.918;2022-07-23T04:25:04;96053.81;;;29.79;38.67
41222;BME280;26952;42.884;23.918;2022-07-23T04:27:29;96054.19;;;30.20;38.11
41222;BME280;26952;42.884;23.918;2022-07-23T04:29:55;95994.00;;;30.48;36.67
41222;BME280;26952;42.884;23.918;2022-07-23T04:32:20;96032.19;;;31.33;35.06
41222;BME280;26952;42.884;23.918;2022-07-23T04:34:46;96040.50;;;31.92;34.30
41222;BME280;26952;42.884;23.918;2022-07-23T04:37:11;96050.66;;;32.32;33.89
41222;BME280;26952;42.884;23.918;2022-07-23T04:39:37;96040.31;;;32.56;33.37
41222;BME280;26952;42.884;23.918;2022-07-23T04:42:02;96045.06;;;32.78;34.12
41222;BME280;26952;42.884;23.918;2022-07-23T04:44:28;96047.56;;;33.01;33.31
41222;BME280;26952;42.884;23.918;2022-07-23T04:46:53;96043.66;;;33.16;33.64
41222;BME280;26952;42.884;23.918;2022-07-23T04:49:19;96056.91;;;32.87;33.94
41222;BME280;26952;42.884;23.918;2022-07-23T04:51:44;96058.38;;;32.57;34.81
41222;BME280;26952;42.884;23.918;2022-07-23T04:54:10;96063.84;;;32.16;36.11
41222;BME280;26952;42.884;23.918;2022-07-23T04:56:35;96053.69;;;31.90;36.47
41222;BME280;26952;42.884;23.918;2022-07-23T04:59:00;96054.34;;;31.82;36.75
41222;BME280;26952;42.884;23.918;2022-07-23T05:01:26;96056.75;;;32.15;36.65
41222;BME280;26952;42.884;23.918;2022-07-23T05:03:51;96037.06;;;32.00;36.83
41222;BME280;26952;42.884;23.918;2022-07-23T05:06:17;96063.31;;;32.01;36.36
41222;BME280;26952;42.884;23.918;2022-07-23T05:08:42;96057.16;;;31.77;37.08
41222;BME280;26952;42.884;23.918;2022-07-23T05:11:07;96053.31;;;31.46;37.98
41222;BME280;26952;42.884;23.918;2022-07-23T05:13:33;96057.25;;;31.40;38.40
41222;BME280;26952;42.884;23.918;2022-07-23T05:15:58;96054.38;;;31.31;39.03
41222;BME280;26952;42.884;23.918;2022-07-23T05:18:24;96052.00;;;31.75;38.67
41222;BME280;26952;42.884;23.918;2022-07-23T05:20:49;96059.28;;;31.80;38.87
41222;BME280;26952;42.884;23.918;2022-07-23T05:23:14;96050.25;;;32.11;38.45
41222;BME280;26952;42.884;23.918;2022-07-23T05:25:40;96064.69;;;32.44;38.25
41222;BME280;26952;42.884;23.918;2022-07-23T05:28:05;96069.56;;;32.74;37.05
41222;BME280;26952;42.884;23.918;2022-07-23T05:30:31;96073.38;;;32.87;38.00
41222;BME280;26952;42.884;23.918;2022-07-23T05:32:56;96062.16;;;32.75;35.87
41222;BME280;26952;42.884;23.918;2022-07-23T05:35:21;96061.22;;;32.52;35.63
41222;BME280;26952;42.884;23.918;2022-07-23T05:37:47;96065.09;;;32.51;37.13
41222;BME280;26952;42.884;23.918;2022-07-23T05:40:13;96072.66;;;32.13;37.98
41222;BME280;26952;42.884;23.918;2022-07-23T05:42:40;96069.09;;;31.99;36.98
41222;BME280;26952;42.884;23.918;2022-07-23T05:45:06;96071.63;;;31.96;37.90
41222;BME280;26952;42.884;23.918;2022-07-23T05:47:43;96070.47;;;31.51;37.73
41222;BME280;26952;42.884;23.918;2022-07-23T05:50:10;96079.75;;;31.37;40.04
41222;BME280;26952;42.884;23.918;2022-07-23T05:52:36;96074.34;;;31.32;39.01
41222;BME280;26952;42.884;23.918;2022-07-23T05:55:01;96070.19;;;31.53;38.92
41222;BME280;26952;42.884;23.918;2022-07-23T05:57:27;96064.50;;;31.49;40.54
41222;BME280;26952;42.884;23.918;2022-07-23T05:59:52;96079.75;;;31.69;38.63
41222;BME280;26952;42.884;23.918;2022-07-23T06:02:17;96072.34;;;31.88;38.40
41222;BME280;26952;42.884;23.918;2022-07-23T06:04:43;96058.47;;;31.66;38.66
41222;BME280;26952;42.884;23.918;2022-07-23T06:07:08;96070.81;;;31.63;40.37
41222;BME280;26952;42.884;23.918;2022-07-23T06:09:34;96087.59;;;31.43;38.83
41222;BME280;26952;42.884;23.918;2022-07-23T06:11:59;96066.31;;;30.37;39.40
41222;BME280;26952;42.884;23.918;2022-07-23T06:14:24;96073.16;;;30.58;40.84
41222;BME280;26952;42.884;23.918;2022-07-23T06:16:50;96073.56;;;30.47;41.29
41222;BME280;26952;42.884;23.918;2022-07-23T06:19:15;96077.66;;;30.49;39.65
41222;BME280;26952;42.884;23.918;2022-07-23T06:21:41;96073.44;;;30.57;39.72
41222;BME280;26952;42.884;23.918;2022-07-23T06:24:06;96079.09;;;31.07;39.47
41222;BME280;26952;42.884;23.918;2022-07-23T06:26:32;96074.22;;;31.42;41.64
41222;BME280;26952;42.884;23.918;2022-07-23T06:28:57;96067.16;;;31.68;41.47
41222;BME280;26952;42.884;23.918;2022-07-23T06:31:22;96067.16;;;31.68;38.96
41222;BME280;26952;42.884;23.918;2022-07-23T06:33:48;96059.81;;;31.82;40.40
41222;BME280;26952;42.884;23.918;2022-07-23T06:36:13;96072.38;;;32.15;41.25
41222;BME280;26952;42.884;23.918;2022-07-23T06:38:38;96068.16;;;32.50;40.25
41222;BME280;26952;42.884;23.918;2022-07-23T06:41:04;96064.50;;;32.54;35.90
41222;BME280;26952;42.884;23.918;2022-07-23T06:43:30;96066.91;;;32.69;38.52
41222;BME280;26952;42.884;23.918;2022-07-23T06:45:56;96059.69;;;32.73;40.04
41222;BME280;26952;42.884;23.918;2022-07-23T06:48:21;96071.47;;;32.87;37.31
41222;BME280;26952;42.884;23.918;2022-07-23T06:50:47;96052.50;;;32.91;38.55
41222;BME280;26952;42.884;23.918;2022-07-23T06:53:13;96054.06;;;33.05;38.58
41222;BME280;26952;42.884;23.918;2022-07-23T06:55:38;96066.28;;;32.99;36.51
41222;BME280;26952;42.884;23.918;2022-07-23T06:58:05;96047.44;;;33.42;38.50
41222;BME280;26952;42.884;23.918;2022-07-23T07:00:31;96062.50;;;33.66;34.38
41222;BME280;26952;42.884;23.918;2022-07-23T07:02:57;96052.28;;;33.89;33.80
41222;BME280;26952;42.884;23.918;2022-07-23T07:05:23;96031.13;;;33.67;34.27
41222;BME280;26952;42.884;23.918;2022-07-23T07:07:50;96041.63;;;33.88;36.02
41222;BME280;26952;42.884;23.918;2022-07-23T07:10:15;96058.19;;;33.96;36.52
41222;BME280;26952;42.884;23.918;2022-07-23T07:12:42;96040.25;;;33.99;34.14
41222;BME280;26952;42.884;23.918;2022-07-23T07:15:08;96052.94;;;34.17;36.18
41222;BME280;26952;42.884;23.918;2022-07-23T07:17:33;96045.63;;;34.43;33.94
41222;BME280;26952;42.884;23.918;2022-07-23T07:19:59;96025.94;;;34.58;33.32
41222;BME280;26952;42.884;23.918;2022-07-23T07:22:24;96046.84;;;34.67;34.62
41222;BME280;26952;42.884;23.918;2022-07-23T07:24:49;96048.81;;;34.75;33.83
41222;BME280;26952;42.884;23.918;2022-07-23T07:27:15;96038.66;;;34.93;32.51
41222;BME280;26952;42.884;23.918;2022-07-23T07:29:40;96040.78;;;35.05;35.32
41222;BME280;26952;42.884;23.918;2022-07-23T07:32:06;96039.13;;;35.04;31.48
41222;BME280;26952;42.884;23.918;2022-07-23T07:34:31;96040.78;;;35.22;33.14
41222;BME280;26952;42.884;23.918;2022-07-23T07:36:56;96045.50;;;35.38;32.71
41222;BME280;26952;42.884;23.918;2022-07-23T07:39:22;96045.50;;;35.47;31.41
41222;BME280;26952;42.884;23.918;2022-07-23T07:41:47;96044.81;;;35.75;31.13
41222;BME280;26952;42.884;23.918;2022-07-23T07:44:13;96040.38;;;36.08;31.04
41222;BME280;26952;42.884;23.918;2022-07-23T07:46:38;96039.06;;;36.14;32.10
41222;BME280;26952;42.884;23.918;2022-07-23T07:49:03;96025.56;;;36.21;30.57
41222;BME280;26952;42.884;23.918;2022-07-23T07:51:29;96025.44;;;36.56;30.46
41222;BME280;26952;42.884;23.918;2022-07-23T07:53:54;96030.00;;;36.52;28.55
41222;BME280;26952;42.884;23.918;2022-07-23T07:56:20;96035.19;;;36.82;30.96
41222;BME280;26952;42.884;23.918;2022-07-23T07:58:45;96018.06;;;36.68;29.58
41222;BME280;26952;42.884;23.918;2022-07-23T08:01:10;96026.19;;;36.36;28.46
41222;BME280;26952;42.884;23.918;2022-07-23T08:03:36;96033.97;;;36.34;29.24
41222;BME280;26952;42.884;23.918;2022-07-23T08:06:01;96020.19;;;36.63;28.64
41222;BME280;26952;42.884;23.918;2022-07-23T08:08:27;96023.06;;;36.46;26.17
41222;BME280;26952;42.884;23.918;2022-07-23T08:10:52;96009.25;;;36.46;25.22
41222;BME280;26952;42.884;23.918;2022-07-23T08:13:17;96022.19;;;36.54;24.82
41222;BME280;26952;42.884;23.918;2022-07-23T08:15:43;96022.41;;;36.98;26.54
41222;BME280;26952;42.884;23.918;2022-07-23T08:18:09;96010.19;;;37.28;24.72
41222;BME280;26952;42.884;23.918;2022-07-23T08:20:35;96007.28;;;37.25;24.65
41222;BME280;26952;42.884;23.918;2022-07-23T08:23:05;96016.75;;;36.95;23.82
41222;BME280;26952;42.884;23.918;2022-07-23T08:25:32;96021.88;;;36.76;22.31
41222;BME280;26952;42.884;23.918;2022-07-23T08:27:59;96026.28;;;37.06;23.73
41222;BME280;26952;42.884;23.918;2022-07-23T08:30:25;96022.16;;;37.32;24.55
41222;BME280;26952;42.884;23.918;2022-07-23T08:33:12;96028.91;;;37.02;23.28
41222;BME280;26952;42.884;23.918;2022-07-23T08:35:43;96024.25;;;36.65;22.01
41222;BME280;26952;42.884;23.918;2022-07-23T08:38:11;96002.50;;;36.35;21.45
41222;BME280;26952;42.884;23.918;2022-07-23T08:40:39;95996.13;;;36.43;21.58
41222;BME280;26952;42.884;23.918;2022-07-23T08:43:07;96014.31;;;36.64;19.80
41222;BME280;26952;42.884;23.918;2022-07-23T08:45:41;96023.72;;;37.01;19.83
41222;BME280;26952;42.884;23.918;2022-07-23T08:48:12;96034.41;;;37.23;20.87
41222;BME280;26952;42.884;23.918;2022-07-23T08:50:42;96030.53;;;37.44;19.51
41222;BME280;26952;42.884;23.918;2022-07-23T08:53:08;96025.28;;;37.84;21.50
41222;BME280;26952;42.884;23.918;2022-07-23T08:55:34;96018.19;;;38.07;17.07
41222;BME280;26952;42.884;23.918;2022-07-23T08:58:00;95947.28;;;37.79;17.69
41222;BME280;26952;42.884;23.918;2022-07-23T09:00:26;96022.72;;;38.36;17.83
41222;BME280;26952;42.884;23.918;2022-07-23T09:02:51;96024.22;;;38.21;17.91
41222;BME280;26952;42.884;23.918;2022-07-23T09:05:18;96017.78;;;38.29;20.87
41222;BME280;26952;42.884;23.918;2022-07-23T09:08:10;96024.94;;;38.30;18.93
41222;BME280;26952;42.884;23.918;2022-07-23T09:10:56;96009.97;;;38.80;21.96
41222;BME280;26952;42.884;23.918;2022-07-23T09:13:46;96031.13;;;39.24;19.09
41222;BME280;26952;42.884;23.918;2022-07-23T09:18:45;96015.44;;;39.16;21.31
41222;BME280;26952;42.884;23.918;2022-07-23T09:21:20;96014.31;;;39.17;21.02
41222;BME280;26952;42.884;23.918;2022-07-23T09:26:30;96008.00;;;39.44;20.78
41222;BME280;26952;42.884;23.918;2022-07-23T09:31:27;96009.25;;;38.46;19.18
41222;BME280;26952;42.884;23.918;2022-07-23T09:34:06;96007.41;;;38.50;21.16
41222;BME280;26952;42.884;23.918;2022-07-23T09:36:32;96011.22;;;38.70;20.60
41222;BME280;26952;42.884;23.918;2022-07-23T09:38:58;96003.72;;;38.83;19.89
41222;BME280;26952;42.884;23.918;2022-07-23T09:41:23;95991.50;;;38.71;20.29
41222;BME280;26952;42.884;23.918;2022-07-23T09:43:54;95990.09;;;38.29;19.56
41222;BME280;26952;42.884;23.918;2022-07-23T09:48:50;95978.50;;;38.60;21.40
41222;BME280;26952;42.884;23.918;2022-07-23T09:51:17;95994.25;;;38.47;19.64
41222;BME280;26952;42.884;23.918;2022-07-23T09:54:00;95989.63;;;39.12;24.37
41222;BME280;26952;42.884;23.918;2022-07-23T09:56:27;95999.31;;;38.94;20.65
41222;BME280;26952;42.884;23.918;2022-07-23T09:58:53;95989.31;;;38.53;21.58
41222;BME280;26952;42.884;23.918;2022-07-23T10:01:48;96002.56;;;38.47;19.95
41222;BME280;26952;42.884;23.918;2022-07-23T10:04:15;95984.09;;;38.03;21.19
41222;BME280;26952;42.884;23.918;2022-07-23T10:06:42;95992.69;;;37.90;19.94
41222;BME280;26952;42.884;23.918;2022-07-23T10:09:12;95987.34;;;38.17;19.65
41222;BME280;26952;42.884;23.918;2022-07-23T10:11:37;95990.34;;;38.24;19.70
41222;BME280;26952;42.884;23.918;2022-07-23T10:14:04;95989.41;;;38.81;24.20
41222;BME280;26952;42.884;23.918;2022-07-23T10:16:31;95975.44;;;38.89;18.89
41222;BME280;26952;42.884;23.918;2022-07-23T10:18:56;95982.97;;;38.64;18.98
41222;BME280;26952;42.884;23.918;2022-07-23T10:21:34;95976.75;;;38.67;19.72
41222;BME280;26952;42.884;23.918;2022-07-23T10:32:40;95966.97;;;39.10;19.64
41222;BME280;26952;42.884;23.918;2022-07-23T10:35:21;95954.00;;;39.26;18.68
41222;BME280;26952;42.884;23.918;2022-07-23T10:37:57;95951.59;;;39.40;19.72
41222;BME280;26952;42.884;23.918;2022-07-23T10:40:27;95959.06;;;39.24;18.83
41222;BME280;26952;42.884;23.918;2022-07-23T10:42:59;95952.06;;;38.74;20.29
41222;BME280;26952;42.884;23.918;2022-07-23T10:45:33;95960.19;;;37.87;19.65
41222;BME280;26952;42.884;23.918;2022-07-23T10:48:25;95957.34;;;37.30;19.90
41222;BME280;26952;42.884;23.918;2022-07-23T10:51:14;95946.34;;;37.75;21.55
41222;BME280;26952;42.884;23.918;2022-07-23T10:53:53;95955.25;;;38.04;20.85
41222;BME280;26952;42.884;23.918;2022-07-23T10:59:19;95942.94;;;38.14;20.05
41222;BME280;26952;42.884;23.918;2022-07-23T11:01:45;95929.00;;;38.22;22.31
41222;BME280;26952;42.884;23.918;2022-07-23T11:04:10;95939.63;;;38.32;19.21
41222;BME280;26952;42.884;23.918;2022-07-23T11:09:38;95929.91;;;38.74;18.81
41222;BME280;26952;42.884;23.918;2022-07-23T11:17:22;95931.72;;;39.93;20.92
41222;BME280;26952;42.884;23.918;2022-07-23T11:25:07;95917.00;;;39.61;21.87
41222;BME280;26952;42.884;23.918;2022-07-23T11:30:03;95905.84;;;39.89;21.13
41222;BME280;26952;42.884;23.918;2022-07-23T11:32:31;95911.53;;;39.80;17.97
41222;BME280;26952;42.884;23.918;2022-07-23T11:34:58;95923.47;;;39.38;18.01
41222;BME280;26952;42.884;23.918;2022-07-23T11:37:39;95915.94;;;39.11;18.99
41222;BME280;26952;42.884;23.918;2022-07-23T11:40:13;95910.63;;;39.45;20.62
41222;BME280;26952;42.884;23.918;2022-07-23T11:42:40;95875.91;;;38.96;18.89
41222;BME280;26952;42.884;23.918;2022-07-23T11:45:15;95908.16;;;38.89;18.03
41222;BME280;26952;42.884;23.918;2022-07-23T11:47:41;95908.97;;;38.89;20.11
41222;BME280;26952;42.884;23.918;2022-07-23T11:50:07;95899.31;;;39.11;21.97
41222;BME280;26952;42.884;23.918;2022-07-23T11:52:32;95892.28;;;39.56;20.53
41222;BME280;26952;42.884;23.918;2022-07-23T11:55:09;95895.72;;;39.81;21.07
41222;BME280;26952;42.884;23.918;2022-07-23T11:57:40;95898.22;;;39.86;20.19
41222;BME280;26952;42.884;23.918;2022-07-23T12:00:16;95894.75;;;40.04;18.80
41222;BME280;26952;42.884;23.918;2022-07-23T12:02:49;95892.06;;;40.24;18.78
41222;BME280;26952;42.884;23.918;2022-07-23T12:05:17;95878.44;;;40.19;19.06
41222;BME280;26952;42.884;23.918;2022-07-23T12:07:44;95885.31;;;39.47;18.09
41222;BME280;26952;42.884;23.918;2022-07-23T12:10:23;95880.06;;;38.50;18.11
41222;BME280;26952;42.884;23.918;2022-07-23T12:15:27;95866.50;;;36.96;17.41
41222;BME280;26952;42.884;23.918;2022-07-23T12:17:54;95884.88;;;36.92;18.75
41222;BME280;26952;42.884;23.918;2022-07-23T12:20:23;95870.53;;;37.31;18.54
41222;BME280;26952;42.884;23.918;2022-07-23T12:22:51;95858.22;;;36.96;18.12
41222;BME280;26952;42.884;23.918;2022-07-23T12:25:20;95866.09;;;37.06;18.27
41222;BME280;26952;42.884;23.918;2022-07-23T12:27:57;95869.41;;;36.99;17.61
41222;BME280;26952;42.884;23.918;2022-07-23T12:30:32;95874.78;;;36.96;16.30
41222;BME280;26952;42.884;23.918;2022-07-23T12:32:59;95856.22;;;37.17;15.99
41222;BME280;26952;42.884;23.918;2022-07-23T12:35:32;95855.06;;;37.18;15.56
41222;BME280;26952;42.884;23.918;2022-07-23T12:38:02;95858.75;;;36.89;15.84
41222;BME280;26952;42.884;23.918;2022-07-23T12:40:31;95865.88;;;37.11;17.04
41222;BME280;26952;42.884;23.918;2022-07-23T12:43:08;95837.13;;;36.71;15.98
41222;BME280;26952;42.884;23.918;2022-07-23T12:50:52;95864.28;;;37.22;16.64
41222;BME280;26952;42.884;23.918;2022-07-23T12:53:23;95860.31;;;37.31;17.59
41222;BME280;26952;42.884;23.918;2022-07-23T12:55:56;95868.41;;;37.61;17.19
41222;BME280;26952;42.884;23.918;2022-07-23T12:58:22;95854.13;;;37.59;16.64
41222;BME280;26952;42.884;23.918;2022-07-23T13:00:51;95864.19;;;37.99;16.86
41222;BME280;26952;42.884;23.918;2022-07-23T13:03:24;95848.88;;;38.26;16.87
41222;BME280;26952;42.884;23.918;2022-07-23T13:05:50;95844.94;;;37.55;15.46
41222;BME280;26952;42.884;23.918;2022-07-23T13:08:17;95837.72;;;37.29;14.49
41222;BME280;26952;42.884;23.918;2022-07-23T13:10:42;95839.78;;;37.77;15.62
41222;BME280;26952;42.884;23.918;2022-07-23T13:13:11;95843.47;;;37.69;15.08
41222;BME280;26952;42.884;23.918;2022-07-23T13:15:36;95834.53;;;37.39;15.82
41222;BME280;26952;42.884;23.918;2022-07-23T13:18:02;95840.19;;;37.55;16.17
41222;BME280;26952;42.884;23.918;2022-07-23T13:20:28;95816.84;;;37.77;17.03
41222;BME280;26952;42.884;23.918;2022-07-23T13:22:53;95835.63;;;38.19;16.63
41222;BME280;26952;42.884;23.918;2022-07-23T13:25:18;95820.53;;;38.56;17.21
41222;BME280;26952;42.884;23.918;2022-07-23T13:27:44;95823.47;;;38.88;16.65
41222;BME280;26952;42.884;23.918;2022-07-23T13:30:10;95816.72;;;39.01;19.22
41222;BME280;26952;42.884;23.918;2022-07-23T13:32:36;95819.50;;;39.01;17.86
41222;BME280;26952;42.884;23.918;2022-07-23T13:35:02;95830.00;;;38.67;17.16
41222;BME280;26952;42.884;23.918;2022-07-23T13:37:28;95817.28;;;37.91;18.22
41222;BME280;26952;42.884;23.918;2022-07-23T13:39:53;95823.97;;;37.66;18.11